Time;durP1;ratioP1;P1;durP2;ratioP2;P2;SDS_P1;SDS_P2;PMS_P1;PMS_P2;Temp;Humidity;BMP_temperature;BMP_pressure;BME280_temperature;BME280_humidity;BME280_pressure;Samples;Min_cycle;Max_cycle;Signal;HPM_P1;HPM_P2
2022/03/25 00:02:16;;;;;;;10.63;6.10;;;20.30;51.20;;;;;;4991686;28;20143;-71
2022/03/25 00:04:42;;;;;;;9.35;5.90;;;20.30;51.20;;;;;;4997960;28;20055;-71
2022/03/25 00:07:08;;;;;;;11.48;6.20;;;20.30;51.20;;;;;;5029495;28;20034;-71
2022/03/25 00:09:35;;;;;;;11.40;6.65;;;20.20;51.20;;;;;;4997836;28;20035;-71
2022/03/25 00:12:03;;;;;;;12.60;7.18;;;20.20;51.20;;;;;;5006409;28;20038;-72
2022/03/25 00:14:30;;;;;;;15.70;6.63;;;20.20;51.20;;;;;;4996776;28;20038;-71
2022/03/25 00:16:56;;;;;;;13.38;6.40;;;20.20;51.00;;;;;;4997727;28;20058;-71
2022/03/25 00:19:22;;;;;;;14.73;7.38;;;20.30;51.10;;;;;;4998928;28;20043;-71
2022/03/25 00:21:49;;;;;;;16.55;7.43;;;20.10;50.80;;;;;;4998343;28;20049;-71
2022/03/25 00:24:15;;;;;;;15.85;8.57;;;20.10;50.80;;;;;;4998642;28;20043;-70
2022/03/25 00:26:41;;;;;;;12.52;7.82;;;20.20;50.60;;;;;;4999324;28;20035;-71
2022/03/25 00:29:08;;;;;;;14.80;7.05;;;20.10;50.60;;;;;;5001559;28;20047;-71
2022/03/25 00:31:36;;;;;;;10.95;7.60;;;20.20;50.50;;;;;;4989244;28;20039;-71
2022/03/25 00:34:02;;;;;;;14.38;8.25;;;20.20;50.30;;;;;;4998836;28;20045;-71
2022/03/25 00:36:29;;;;;;;15.80;8.10;;;20.20;50.30;;;;;;4997118;28;20046;-71
2022/03/25 00:38:55;;;;;;;13.50;8.07;;;20.20;50.20;;;;;;5014618;28;20097;-71
2022/03/25 00:41:22;;;;;;;14.25;8.63;;;20.30;50.30;;;;;;4997755;28;20045;-71
2022/03/25 00:43:49;;;;;;;11.85;7.90;;;20.10;50.30;;;;;;5002305;28;20046;-71
2022/03/25 00:46:15;;;;;;;11.90;8.13;;;20.10;50.30;;;;;;4999004;28;20503;-71
2022/03/25 00:48:42;;;;;;;18.13;8.43;;;20.10;50.40;;;;;;5005364;28;20038;-71
2022/03/25 00:51:10;;;;;;;11.43;7.65;;;20.10;50.50;;;;;;5012966;28;20130;-72
2022/03/25 00:53:37;;;;;;;9.85;6.93;;;20.00;50.40;;;;;;4997739;28;20093;-71
2022/03/25 00:56:04;;;;;;;15.15;7.10;;;20.00;50.50;;;;;;5009490;28;20101;-70
2022/03/25 00:58:32;;;;;;;15.32;7.03;;;20.00;50.50;;;;;;5013368;28;20066;-71
2022/03/25 01:00:58;;;;;;;14.98;8.25;;;19.90;50.60;;;;;;5011661;28;20058;-71
2022/03/25 01:03:25;;;;;;;10.82;6.97;;;19.90;50.60;;;;;;5029828;28;20054;-71
2022/03/25 01:05:52;;;;;;;10.30;7.22;;;20.00;50.60;;;;;;4997612;28;20062;-70
2022/03/25 01:08:18;;;;;;;13.48;6.95;;;20.00;50.50;;;;;;4997384;28;20039;-71
2022/03/25 01:10:45;;;;;;;21.00;8.07;;;20.00;50.40;;;;;;4996695;28;20042;-72
2022/03/25 01:13:11;;;;;;;19.02;7.90;;;20.00;50.30;;;;;;5028956;28;20073;-70
2022/03/25 01:15:38;;;;;;;13.75;8.38;;;20.00;50.30;;;;;;5014872;28;20043;-70
2022/03/25 01:18:04;;;;;;;14.77;9.07;;;19.90;50.30;;;;;;5012987;28;20046;-71
2022/03/25 01:20:31;;;;;;;13.45;6.90;;;19.90;50.30;;;;;;4998295;28;20106;-71
2022/03/25 01:22:57;;;;;;;16.73;7.63;;;19.90;50.30;;;;;;5011920;28;20050;-71
2022/03/25 01:25:24;;;;;;;14.98;7.38;;;19.90;50.20;;;;;;4997290;28;20110;-71
2022/03/25 01:27:50;;;;;;;12.93;7.20;;;19.90;50.10;;;;;;4998203;28;20062;-71
2022/03/25 01:30:17;;;;;;;14.70;8.02;;;19.90;50.00;;;;;;4996741;28;20074;-72
2022/03/25 01:32:45;;;;;;;17.15;7.95;;;19.90;50.00;;;;;;4996795;28;20062;-72
2022/03/25 01:35:13;;;;;;;15.20;7.90;;;20.00;49.90;;;;;;4996800;28;20034;-71
2022/03/25 01:37:42;;;;;;;15.32;7.53;;;20.00;49.70;;;;;;5012913;28;20038;-71
2022/03/25 01:40:09;;;;;;;13.15;7.68;;;20.00;49.80;;;;;;4996898;28;20097;-71
2022/03/25 01:42:42;;;;;;;12.75;7.72;;;19.90;49.70;;;;;;5024503;28;20122;-71
2022/03/25 01:45:11;;;;;;;15.30;7.53;;;20.00;49.70;;;;;;5006928;28;20074;-71
2022/03/25 01:47:39;;;;;;;14.80;7.65;;;19.90;49.70;;;;;;4996554;28;20043;-71
2022/03/25 01:50:17;;;;;;;12.60;7.50;;;19.90;49.90;;;;;;4996579;28;20035;-70
2022/03/25 01:52:44;;;;;;;14.50;8.02;;;19.90;49.90;;;;;;4994663;28;20054;-71
2022/03/25 01:55:18;;;;;;;11.18;7.15;;;19.80;49.80;;;;;;5015011;28;20072;-71
2022/03/25 01:57:45;;;;;;;13.07;7.63;;;19.80;49.90;;;;;;5009674;28;20114;-71
2022/03/25 02:00:14;;;;;;;15.15;7.43;;;19.70;50.00;;;;;;5024574;28;20043;-71
2022/03/25 02:02:47;;;;;;;12.43;6.90;;;19.70;50.10;;;;;;4992693;28;20035;-71
2022/03/25 02:05:15;;;;;;;19.48;8.43;;;19.70;50.10;;;;;;5012984;28;20047;-71
2022/03/25 02:07:41;;;;;;;12.35;7.60;;;19.70;50.30;;;;;;5013038;28;20046;-70
2022/03/25 02:10:08;;;;;;;14.35;7.95;;;19.60;50.10;;;;;;5010372;28;20058;-70
2022/03/25 02:12:36;;;;;;;12.57;7.65;;;19.60;50.10;;;;;;5008328;28;20070;-71
2022/03/25 02:15:05;;;;;;;10.40;7.10;;;19.60;50.00;;;;;;4988818;28;20106;-71
2022/03/25 02:17:32;;;;;;;15.05;7.68;;;19.60;49.80;;;;;;5018744;28;20053;-71
2022/03/25 02:19:58;;;;;;;10.65;7.30;;;19.70;49.80;;;;;;5010999;28;20055;-71
2022/03/25 02:22:26;;;;;;;13.00;7.10;;;19.70;49.80;;;;;;5009539;28;20084;-71
2022/03/25 02:24:54;;;;;;;14.68;7.53;;;19.60;49.80;;;;;;5031572;28;20050;-71
2022/03/25 02:27:23;;;;;;;10.95;7.63;;;19.60;49.70;;;;;;4996917;28;20058;-70
2022/03/25 02:29:49;;;;;;;13.13;7.10;;;19.60;49.80;;;;;;4995830;28;20043;-71
2022/03/25 02:32:17;;;;;;;13.45;7.95;;;19.70;49.70;;;;;;5018656;28;20046;-71
2022/03/25 02:34:44;;;;;;;9.77;6.80;;;19.60;49.60;;;;;;4995897;28;20049;-71
2022/03/25 02:37:12;;;;;;;9.32;6.68;;;19.70;49.70;;;;;;5012212;28;20107;-71
2022/03/25 02:39:39;;;;;;;12.02;8.23;;;19.70;49.70;;;;;;5028493;28;20043;-71
2022/03/25 02:42:05;;;;;;;13.45;7.95;;;19.60;49.60;;;;;;5025925;28;20058;-71
2022/03/25 02:44:31;;;;;;;18.92;8.00;;;19.70;49.60;;;;;;5008686;28;20042;-70
2022/03/25 02:46:57;;;;;;;13.38;7.78;;;19.60;49.50;;;;;;5014269;28;20054;-71
2022/03/25 02:49:24;;;;;;;11.45;7.70;;;19.70;49.60;;;;;;4994329;28;20039;-70
2022/03/25 02:51:51;;;;;;;16.77;8.45;;;19.60;49.50;;;;;;4996768;28;20043;-71
2022/03/25 02:54:17;;;;;;;17.40;8.50;;;19.50;49.60;;;;;;4995713;28;20085;-70
2022/03/25 02:56:43;;;;;;;12.52;7.18;;;19.60;49.70;;;;;;4994490;28;20051;-70
2022/03/25 02:59:09;;;;;;;11.95;8.05;;;19.60;49.70;;;;;;5010881;28;20069;-71
2022/03/25 03:01:37;;;;;;;14.30;8.35;;;19.50;49.80;;;;;;4995182;28;20038;-71
2022/03/25 03:04:03;;;;;;;11.70;7.35;;;19.50;49.80;;;;;;4995268;28;20034;-71
2022/03/25 03:06:29;;;;;;;11.18;6.75;;;19.40;49.80;;;;;;4996306;28;20054;-71
2022/03/25 03:08:56;;;;;;;12.93;7.32;;;19.50;49.90;;;;;;4996766;28;20048;-70
2022/03/25 03:11:24;;;;;;;11.07;7.95;;;19.50;50.00;;;;;;5001305;28;20042;-71
2022/03/25 03:13:50;;;;;;;11.95;7.25;;;19.50;50.00;;;;;;5015997;28;20050;-70
2022/03/25 03:16:16;;;;;;;11.63;7.88;;;19.50;50.10;;;;;;5010774;28;20042;-70
2022/03/25 03:18:42;;;;;;;12.13;6.85;;;19.40;49.90;;;;;;4996175;28;20089;-70
2022/03/25 03:21:08;;;;;;;14.68;7.50;;;19.40;49.70;;;;;;5006316;28;20043;-71
2022/03/25 03:23:34;;;;;;;15.02;7.35;;;19.40;49.50;;;;;;5031824;28;20046;-71
2022/03/25 03:26:01;;;;;;;12.30;7.45;;;19.40;49.50;;;;;;5002881;28;20055;-71
2022/03/25 03:28:26;;;;;;;12.73;7.88;;;19.60;49.60;;;;;;4995176;28;20039;-71
2022/03/25 03:30:55;;;;;;;11.65;7.68;;;19.40;49.50;;;;;;5001629;28;20042;-71
2022/03/25 03:33:22;;;;;;;13.52;7.68;;;19.30;49.60;;;;;;4998589;28;20070;-71
2022/03/25 03:35:48;;;;;;;13.20;7.30;;;19.40;49.50;;;;;;4995630;28;20038;-70
2022/03/25 03:38:14;;;;;;;15.07;7.72;;;19.40;49.50;;;;;;5008334;28;20042;-71
2022/03/25 03:40:40;;;;;;;12.07;7.53;;;19.50;49.40;;;;;;5012280;28;20123;-71
2022/03/25 03:43:07;;;;;;;13.48;8.02;;;19.50;49.30;;;;;;5014421;28;20045;-70
2022/03/25 03:45:33;;;;;;;13.18;7.47;;;19.60;49.20;;;;;;4997898;28;20039;-70
2022/03/25 03:47:59;;;;;;;14.98;8.07;;;19.50;49.20;;;;;;4994160;28;20078;-70
2022/03/25 03:50:25;;;;;;;15.00;7.97;;;19.50;49.10;;;;;;4998385;28;20094;-71
2022/03/25 03:52:52;;;;;;;11.25;8.15;;;19.50;49.10;;;;;;4999555;28;20030;-71
2022/03/25 03:55:18;;;;;;;12.38;7.55;;;19.60;49.20;;;;;;4997975;28;20057;-71
2022/03/25 03:57:44;;;;;;;12.68;8.13;;;19.50;49.20;;;;;;5015841;28;20038;-70
2022/03/25 04:00:12;;;;;;;13.52;7.68;;;19.40;49.20;;;;;;5012780;28;20070;-71
2022/03/25 04:02:44;;;;;;;21.30;7.95;;;19.50;49.40;;;;;;4998910;28;20054;-71
2022/03/25 04:05:13;;;;;;;13.77;8.10;;;19.40;49.40;;;;;;4998172;28;20042;-70
2022/03/25 04:07:45;;;;;;;14.82;7.20;;;19.50;49.50;;;;;;4999686;28;20074;-71
2022/03/25 04:10:12;;;;;;;12.07;7.43;;;19.50;49.60;;;;;;5003178;28;20044;-70
2022/03/25 04:12:40;;;;;;;17.85;9.07;;;19.40;49.50;;;;;;5009459;28;20039;-70
2022/03/25 04:15:11;;;;;;;10.73;7.90;;;19.40;49.50;;;;;;4998135;28;20081;-70
2022/03/25 04:17:39;;;;;;;16.80;8.23;;;19.30;49.60;;;;;;5012724;28;20127;-71
2022/03/25 04:20:07;;;;;;;14.50;8.25;;;19.40;49.60;;;;;;4997931;28;20045;-71
2022/03/25 04:22:34;;;;;;;16.00;8.80;;;19.30;49.60;;;;;;4999175;28;20256;-70
2022/03/25 04:25:00;;;;;;;14.98;8.02;;;19.30;49.50;;;;;;4997647;28;20084;-71
2022/03/25 04:27:26;;;;;;;15.98;8.45;;;19.30;49.40;;;;;;5006291;28;20038;-70
2022/03/25 04:29:52;;;;;;;14.15;7.90;;;19.40;49.20;;;;;;5018718;28;20042;-71
2022/03/25 04:32:18;;;;;;;11.98;7.43;;;19.40;49.10;;;;;;5016364;28;20077;-71
2022/03/25 04:34:44;;;;;;;13.88;7.43;;;19.40;49.20;;;;;;5000048;28;20046;-70
2022/03/25 04:37:11;;;;;;;12.32;7.68;;;19.40;49.30;;;;;;5018557;28;20146;-71
2022/03/25 04:39:37;;;;;;;15.23;8.18;;;19.30;49.30;;;;;;5018335;28;20038;-70
2022/03/25 04:42:04;;;;;;;14.35;8.32;;;19.40;49.50;;;;;;4982865;28;20047;-71
2022/03/25 04:44:30;;;;;;;11.55;7.47;;;19.40;49.40;;;;;;4995434;28;20074;-71
2022/03/25 04:46:56;;;;;;;13.98;8.68;;;19.40;49.20;;;;;;4997308;28;20045;-71
2022/03/25 04:49:23;;;;;;;19.10;8.15;;;19.50;49.30;;;;;;4997004;28;20039;-70
2022/03/25 04:51:53;;;;;;;12.68;7.63;;;19.50;49.10;;;;;;4982172;28;20053;-71
2022/03/25 04:54:19;;;;;;;14.10;8.35;;;19.50;48.90;;;;;;5007770;28;20038;-71
2022/03/25 04:56:45;;;;;;;17.08;9.50;;;19.60;48.80;;;;;;5011622;28;20048;-71
2022/03/25 04:59:11;;;;;;;11.50;8.65;;;19.60;48.40;;;;;;5015972;28;20068;-70
2022/03/25 05:01:38;;;;;;;16.45;8.73;;;19.70;47.90;;;;;;5014915;28;20057;-71
2022/03/25 05:04:04;;;;;;;17.20;8.80;;;19.70;48.60;;;;;;4999149;28;20070;-71
2022/03/25 05:06:34;;;;;;;16.55;8.65;;;19.70;48.50;;;;;;4996830;28;20042;-71
2022/03/25 05:09:00;;;;;;;13.50;8.07;;;19.70;48.50;;;;;;4996820;28;20047;-70
2022/03/25 05:11:27;;;;;;;15.50;8.40;;;19.70;48.40;;;;;;5006744;28;20061;-70
2022/03/25 05:13:53;;;;;;;13.57;8.52;;;19.80;48.30;;;;;;5002633;28;20047;-70
2022/03/25 05:16:19;;;;;;;12.95;8.43;;;19.80;48.40;;;;;;5005950;28;20070;-71
2022/03/25 05:18:45;;;;;;;14.63;8.05;;;19.80;48.50;;;;;;5005203;28;20050;-71
2022/03/25 05:21:13;;;;;;;14.70;8.00;;;19.80;48.80;;;;;;5007670;28;20042;-70
2022/03/25 05:23:39;;;;;;;13.35;8.15;;;19.70;49.00;;;;;;5004922;28;20050;-71
2022/03/25 05:26:05;;;;;;;19.42;8.45;;;19.60;49.10;;;;;;4995724;28;20046;-70
2022/03/25 05:28:31;;;;;;;11.48;7.63;;;19.60;49.20;;;;;;4997063;28;20026;-71
2022/03/25 05:30:57;;;;;;;14.43;9.20;;;19.70;49.50;;;;;;5011593;28;20052;-71
2022/03/25 05:33:23;;;;;;;14.13;8.20;;;19.70;49.50;;;;;;5005861;28;20042;-70
2022/03/25 05:35:49;;;;;;;12.68;8.30;;;19.60;49.50;;;;;;4995751;28;20057;-71
2022/03/25 05:38:15;;;;;;;15.00;8.77;;;19.60;49.60;;;;;;4997004;28;20042;-71
2022/03/25 05:40:41;;;;;;;15.32;9.50;;;19.60;49.30;;;;;;4996515;28;20050;-71
2022/03/25 05:43:08;;;;;;;15.38;8.50;;;19.60;49.10;;;;;;4994892;28;20031;-71
2022/03/25 05:45:34;;;;;;;13.45;8.40;;;19.70;49.10;;;;;;4996486;28;20062;-71
2022/03/25 05:48:00;;;;;;;14.90;7.35;;;19.70;49.00;;;;;;4995486;28;20039;-71
2022/03/25 05:50:27;;;;;;;13.45;7.82;;;19.80;49.10;;;;;;4996979;28;20039;-70
2022/03/25 05:52:53;;;;;;;17.02;9.45;;;19.80;49.10;;;;;;4996756;28;20041;-71
2022/03/25 05:55:19;;;;;;;17.45;7.63;;;19.80;49.00;;;;;;4996263;28;20047;-71
2022/03/25 05:57:46;;;;;;;13.77;7.35;;;19.80;49.10;;;;;;4996928;28;20038;-70
2022/03/25 06:00:16;;;;;;;16.40;8.90;;;19.80;49.20;;;;;;5008924;28;20042;-71
2022/03/25 06:02:45;;;;;;;15.95;8.20;;;19.90;49.20;;;;;;5002825;28;20044;-71
2022/03/25 06:05:12;;;;;;;12.00;7.60;;;19.80;49.20;;;;;;4995170;28;20034;-71
2022/03/25 06:07:40;;;;;;;12.35;7.88;;;19.90;50.50;;;;;;4996263;28;20065;-71
2022/03/25 06:10:08;;;;;;;7.00;4.63;;;20.10;50.60;;;;;;4994447;28;20043;-69
2022/03/25 06:12:36;;;;;;;7.00;5.07;;;19.80;44.10;;;;;;4994550;28;20058;-69
2022/03/25 06:15:02;;;;;;;12.07;6.68;;;20.00;41.20;;;;;;4996219;28;20061;-69
2022/03/25 06:17:28;;;;;;;9.38;6.40;;;19.90;40.40;;;;;;5005449;28;20046;-69
2022/03/25 06:19:55;;;;;;;9.10;6.75;;;19.90;39.40;;;;;;5002578;28;20046;-69
2022/03/25 06:22:24;;;;;;;9.90;5.85;;;20.00;40.40;;;;;;4996430;28;20107;-69
2022/03/25 06:24:54;;;;;;;7.55;4.22;;;20.10;39.70;;;;;;4995922;28;20077;-69
2022/03/25 06:27:20;;;;;;;14.25;8.68;;;20.10;38.90;;;;;;4995441;28;20098;-69
2022/03/25 06:29:46;;;;;;;8.75;5.88;;;20.20;38.30;;;;;;4995749;28;20047;-71
2022/03/25 06:32:13;;;;;;;15.13;7.05;;;20.40;41.00;;;;;;4995518;28;20066;-71
2022/03/25 06:34:39;;;;;;;5.78;4.03;;;20.50;51.00;;;;;;4988320;28;20114;-71
2022/03/25 06:37:05;;;;;;;1.55;1.42;;;20.60;51.50;;;;;;4993676;28;20069;-70
2022/03/25 06:39:32;;;;;;;8.88;5.97;;;21.00;52.20;;;;;;4995856;28;20047;-71
2022/03/25 06:41:58;;;;;;;2.50;2.28;;;21.80;48.60;;;;;;5000100;28;20101;-70
2022/03/25 06:44:24;;;;;;;3.15;1.95;;;22.50;46.50;;;;;;4995526;28;20045;-71
2022/03/25 06:46:50;;;;;;;0.85;0.85;;;22.40;44.60;;;;;;4996385;28;20043;-70
2022/03/25 06:49:17;;;;;;;6.28;3.03;;;22.20;42.80;;;;;;4995630;28;20135;-69
2022/03/25 06:51:44;;;;;;;16.15;7.65;;;22.00;43.20;;;;;;4996425;28;20101;-68
2022/03/25 06:54:10;;;;;;;10.15;6.60;;;22.00;41.70;;;;;;5011259;28;20042;-68
2022/03/25 06:56:37;;;;;;;12.30;8.98;;;21.90;41.40;;;;;;4996596;28;20046;-68
2022/03/25 06:59:04;;;;;;;19.25;10.30;;;21.80;40.70;;;;;;5000997;28;20065;-68
2022/03/25 07:01:34;;;;;;;13.98;8.90;;;21.80;40.00;;;;;;4995650;28;20110;-70
2022/03/25 07:04:03;;;;;;;11.93;8.88;;;21.70;41.30;;;;;;5000114;28;20050;-69
2022/03/25 07:06:30;;;;;;;15.82;8.80;;;21.50;44.30;;;;;;5028056;28;20048;-69
2022/03/25 07:08:57;;;;;;;12.85;8.77;;;21.40;47.10;;;;;;4997431;28;20035;-72
2022/03/25 07:11:24;;;;;;;11.43;7.53;;;21.30;47.10;;;;;;4996604;28;20038;-70
2022/03/25 07:13:51;;;;;;;12.77;8.63;;;21.20;47.80;;;;;;4999332;28;20038;-71
2022/03/25 07:16:18;;;;;;;11.15;7.25;;;21.10;48.50;;;;;;5009065;28;20073;-69
2022/03/25 07:18:44;;;;;;;15.02;8.15;;;21.10;49.00;;;;;;4997597;28;20049;-73
2022/03/25 07:21:12;;;;;;;16.27;9.02;;;21.00;48.00;;;;;;5014436;28;20046;-69
2022/03/25 07:23:38;;;;;;;14.50;9.18;;;20.90;48.50;;;;;;5006057;28;20068;-68
2022/03/25 07:26:05;;;;;;;15.35;8.65;;;20.90;49.40;;;;;;4995564;28;20043;-69
2022/03/25 07:28:32;;;;;;;10.05;7.63;;;20.90;48.60;;;;;;5001667;28;20043;-71
2022/03/25 07:30:58;;;;;;;14.57;8.23;;;20.90;49.00;;;;;;4996926;28;20043;-69
2022/03/25 07:33:24;;;;;;;13.43;8.23;;;20.90;50.20;;;;;;4994733;28;20054;-70
2022/03/25 07:35:50;;;;;;;12.70;8.40;;;21.00;50.20;;;;;;4994864;28;20118;-69
2022/03/25 07:38:16;;;;;;;14.18;9.52;;;20.90;49.20;;;;;;5001912;28;20038;-71
2022/03/25 07:40:42;;;;;;;13.60;7.93;;;21.00;49.70;;;;;;5010680;28;20134;-70
2022/03/25 07:43:09;;;;;;;12.52;9.40;;;21.00;49.30;;;;;;5019495;28;20034;-69
2022/03/25 07:45:35;;;;;;;13.70;8.95;;;20.90;48.90;;;;;;5005585;28;20027;-71
2022/03/25 07:48:01;;;;;;;12.88;8.55;;;21.00;50.30;;;;;;5014258;28;20062;-69
2022/03/25 07:50:27;;;;;;;13.35;8.55;;;21.10;51.00;;;;;;4996848;28;20043;-70
2022/03/25 07:52:54;;;;;;;13.40;8.40;;;21.10;52.10;;;;;;4994476;28;20031;-70
2022/03/25 07:55:20;;;;;;;15.50;7.93;;;21.00;50.60;;;;;;5010363;28;20064;-69
2022/03/25 07:57:47;;;;;;;11.48;8.07;;;21.00;51.10;;;;;;5010360;28;20076;-71
2022/03/25 08:00:14;;;;;;;9.80;7.60;;;21.10;50.30;;;;;;4995852;28;20046;-70
2022/03/25 08:02:42;;;;;;;17.13;9.15;;;21.10;50.90;;;;;;4995953;28;20039;-69
2022/03/25 08:05:11;;;;;;;13.63;8.07;;;21.10;48.80;;;;;;5000934;28;20038;-68
2022/03/25 08:07:48;;;;;;;15.55;8.73;;;21.00;50.90;;;;;;4995106;28;20039;-71
2022/03/25 08:10:33;;;;;;;17.00;8.73;;;21.00;48.60;;;;;;5007222;28;20045;-70
2022/03/25 08:13:01;;;;;;;9.50;7.90;;;21.00;49.20;;;;;;5015218;28;20041;-68
2022/03/25 08:15:28;;;;;;;12.95;6.78;;;21.10;49.90;;;;;;4995205;28;20065;-70
2022/03/25 08:18:13;;;;;;;9.00;5.30;;;21.40;47.60;;;;;;4996029;28;20051;-71
2022/03/25 08:20:41;;;;;;;10.57;6.38;;;21.40;46.00;;;;;;4998630;28;20070;-69
2022/03/25 08:27:48;;;;;;;8.75;5.15;;;21.60;46.70;;;;;;5010082;28;20050;-69
2022/03/25 08:28:49;;;;;;;9.10;6.13;;;22.10;37.80;;;;;;5005661;28;20054;-69
2022/03/25 08:31:16;;;;;;;10.27;7.35;;;22.20;35.60;;;;;;4993891;28;20073;-69
2022/03/25 08:33:42;;;;;;;10.57;7.10;;;22.30;35.50;;;;;;4999177;28;20038;-68
2022/03/25 08:36:08;;;;;;;13.18;7.25;;;22.30;35.00;;;;;;4996789;28;20069;-68
2022/03/25 08:38:34;;;;;;;9.40;5.70;;;22.20;35.90;;;;;;4998678;28;20039;-69
2022/03/25 08:41:00;;;;;;;11.10;6.88;;;22.40;35.20;;;;;;4996833;28;20046;-69
2022/03/25 08:43:26;;;;;;;10.45;7.47;;;22.30;35.60;;;;;;4996767;28;20039;-69
2022/03/25 08:45:53;;;;;;;12.27;8.57;;;22.40;43.60;;;;;;4997119;28;20043;-69
2022/03/25 08:48:19;;;;;;;17.42;8.77;;;22.30;42.90;;;;;;4995654;28;20102;-68
2022/03/25 08:50:45;;;;;;;14.10;7.80;;;22.20;44.30;;;;;;5023779;28;20098;-69
2022/03/25 08:53:13;;;;;;;12.80;8.40;;;22.20;46.70;;;;;;4997765;28;20039;-68
2022/03/25 08:55:39;;;;;;;13.38;8.65;;;22.20;45.70;;;;;;4996301;28;20041;-68
2022/03/25 08:58:05;;;;;;;13.35;7.28;;;22.30;46.60;;;;;;4996606;28;20047;-70
2022/03/25 09:00:31;;;;;;;13.40;7.93;;;22.10;48.90;;;;;;4994841;28;20062;-68
2022/03/25 09:02:58;;;;;;;10.95;8.20;;;22.20;48.30;;;;;;5006948;28;20121;-68
2022/03/25 09:05:25;;;;;;;10.40;8.05;;;22.10;47.90;;;;;;5003284;28;20050;-68
2022/03/25 09:07:51;;;;;;;17.50;8.48;;;22.00;51.00;;;;;;5005587;28;20044;-68
2022/03/25 09:10:17;;;;;;;9.98;6.85;;;22.10;55.80;;;;;;4997732;28;20062;-69
2022/03/25 09:12:44;;;;;;;12.75;6.85;;;22.10;51.10;;;;;;4997065;28;20038;-69
2022/03/25 09:15:13;;;;;;;10.25;7.28;;;22.00;51.00;;;;;;4997440;28;20046;-67
2022/03/25 09:17:40;;;;;;;10.85;6.88;;;22.10;51.20;;;;;;4994983;28;20053;-68
2022/03/25 09:20:08;;;;;;;12.88;7.20;;;22.10;51.90;;;;;;4996068;28;20050;-69
2022/03/25 09:22:35;;;;;;;12.35;8.80;;;22.20;52.00;;;;;;4992980;28;20047;-68
2022/03/25 09:25:03;;;;;;;8.40;4.65;;;22.10;52.00;;;;;;5002474;28;20050;-69
2022/03/25 09:27:29;;;;;;;8.10;4.43;;;22.10;52.30;;;;;;5001713;28;20039;-68
2022/03/25 09:29:55;;;;;;;10.00;4.20;;;22.00;50.50;;;;;;4994061;28;20053;-69
2022/03/25 09:32:22;;;;;;;4.78;3.40;;;22.10;51.50;;;;;;4995427;28;20054;-68
2022/03/25 09:37:38;;;;;;;5.93;3.65;;;22.20;50.80;;;;;;4997496;28;20053;-67
2022/03/25 09:40:07;;;;;;;4.85;3.25;;;22.30;50.50;;;;;;4993007;28;20042;-69
2022/03/25 09:42:34;;;;;;;6.35;3.83;;;22.40;50.80;;;;;;4995899;28;20038;-68
2022/03/25 09:45:03;;;;;;;4.35;3.50;;;22.30;51.10;;;;;;4996741;28;20043;-68
2022/03/25 09:47:32;;;;;;;3.88;3.25;;;22.40;49.70;;;;;;5005835;28;20045;-68
2022/03/25 09:50:03;;;;;;;3.88;3.15;;;22.40;51.00;;;;;;4997098;28;20038;-69
2022/03/25 09:52:31;;;;;;;3.92;3.17;;;22.30;50.30;;;;;;4997048;28;20042;-68
2022/03/25 09:54:58;;;;;;;5.10;3.47;;;22.40;50.80;;;;;;4997009;28;20043;-68
2022/03/25 09:57:26;;;;;;;4.25;3.72;;;22.20;50.70;;;;;;4996316;28;20058;-69
2022/03/25 09:59:53;;;;;;;6.68;3.78;;;22.40;52.40;;;;;;4996923;28;20038;-68
2022/03/25 10:02:24;;;;;;;3.25;2.75;;;22.40;50.90;;;;;;4996319;28;20053;-68
2022/03/25 10:04:51;;;;;;;3.90;2.60;;;22.40;52.50;;;;;;4996369;28;20039;-68
2022/03/25 10:07:33;;;;;;;5.10;3.67;;;22.40;52.10;;;;;;4996204;28;20097;-68
2022/03/25 10:10:13;;;;;;;3.17;2.50;;;22.30;50.60;;;;;;4993960;28;20034;-69
2022/03/25 10:12:42;;;;;;;5.30;3.72;;;22.40;52.10;;;;;;4994232;28;20046;-69
2022/03/25 10:15:11;;;;;;;5.55;4.05;;;22.30;51.10;;;;;;4998042;28;20065;-69
2022/03/25 10:17:50;;;;;;;3.42;3.13;;;22.30;51.60;;;;;;4997219;28;20073;-69
2022/03/25 10:20:17;;;;;;;7.70;4.20;;;22.40;43.60;;;;;;4994037;28;20074;-69
2022/03/25 10:22:57;;;;;;;4.32;3.38;;;22.30;38.80;;;;;;4997591;28;20053;-71
2022/03/25 10:25:49;;;;;;;6.22;3.40;;;22.40;38.70;;;;;;4992146;28;20047;-70
2022/03/25 10:28:40;;;;;;;5.68;2.83;;;22.60;37.60;;;;;;4996571;28;20058;-68
2022/03/25 10:31:16;;;;;;;3.97;2.80;;;22.40;38.00;;;;;;4995918;28;20136;-68
2022/03/25 10:33:49;;;;;;;4.45;3.17;;;22.50;37.30;;;;;;4985948;28;20030;-72
2022/03/25 10:36:19;;;;;;;6.35;3.53;;;22.50;38.30;;;;;;4994937;28;20043;-70
2022/03/25 10:38:54;;;;;;;8.43;4.50;;;22.60;38.80;;;;;;5001885;28;20047;-69
2022/03/25 10:41:23;;;;;;;29.30;5.93;;;22.80;52.40;;;;;;5016549;28;20034;-69
2022/03/25 10:44:04;;;;;;;9.50;4.70;;;23.50;50.00;;;;;;5010579;28;20050;-70
2022/03/25 10:46:45;;;;;;;6.35;4.20;;;24.00;56.00;;;;;;5018849;28;20038;-68
2022/03/25 10:49:17;;;;;;;5.38;4.43;;;24.20;46.00;;;;;;4998576;28;20089;-67
2022/03/25 10:51:51;;;;;;;5.47;3.30;;;24.10;36.50;;;;;;5011250;28;20022;-72
2022/03/25 10:54:25;;;;;;;5.93;4.75;;;23.70;43.50;;;;;;4999521;28;20043;-69
2022/03/25 10:56:55;;;;;;;5.18;3.78;;;23.80;51.20;;;;;;5007246;28;20057;-69
2022/03/25 10:59:25;;;;;;;5.05;4.00;;;24.00;50.60;;;;;;5003942;28;20050;-70
2022/03/25 11:01:54;;;;;;;5.10;3.25;;;24.50;49.00;;;;;;4998196;28;20098;-68
2022/03/25 11:04:20;;;;;;;6.20;4.45;;;24.40;46.30;;;;;;5002186;28;20038;-69
2022/03/25 11:06:47;;;;;;;8.00;5.32;;;24.30;45.70;;;;;;4985909;28;20036;-70
2022/03/25 11:09:14;;;;;;;4.95;4.45;;;24.20;45.20;;;;;;4998291;28;20050;-69
2022/03/25 11:11:43;;;;;;;4.45;3.28;;;24.10;45.20;;;;;;5007035;28;20038;-69
2022/03/25 11:14:10;;;;;;;5.45;3.80;;;24.10;45.20;;;;;;5015532;28;20054;-68
2022/03/25 11:16:43;;;;;;;6.38;5.00;;;24.10;45.20;;;;;;5000716;28;20173;-69
2022/03/25 11:19:11;;;;;;;5.25;3.63;;;23.90;45.50;;;;;;4998459;28;20055;-70
2022/03/25 11:21:45;;;;;;;6.65;4.95;;;23.90;45.60;;;;;;4999300;28;20053;-70
2022/03/25 11:24:38;;;;;;;5.55;3.97;;;23.80;45.80;;;;;;4998415;28;20051;-69
2022/03/25 11:27:19;;;;;;;4.65;4.05;;;23.90;46.10;;;;;;4998046;28;20081;-72
2022/03/25 11:29:48;;;;;;;4.43;3.55;;;23.70;45.90;;;;;;5004739;28;20054;-68
2022/03/25 11:32:18;;;;;;;4.80;3.67;;;23.70;46.00;;;;;;4998849;28;20064;-68
2022/03/25 11:34:50;;;;;;;3.90;3.28;;;23.80;46.10;;;;;;4999097;28;20568;-69
2022/03/25 11:37:17;;;;;;;4.43;3.22;;;23.60;45.60;;;;;;4999717;28;20069;-68
2022/03/25 11:39:43;;;;;;;8.05;5.05;;;23.50;45.80;;;;;;4999634;28;20047;-69
2022/03/25 11:42:38;;;;;;;6.15;4.50;;;23.60;45.50;;;;;;4998910;28;20066;-69
2022/03/25 11:45:24;;;;;;;6.95;4.22;;;23.40;46.10;;;;;;4998078;28;20188;-73
2022/03/25 11:48:00;;;;;;;7.80;4.55;;;23.40;47.40;;;;;;4998756;28;20039;-71
2022/03/25 11:50:43;;;;;;;6.18;4.53;;;23.40;48.30;;;;;;4997444;28;20065;-71
2022/03/25 11:53:13;;;;;;;6.22;4.60;;;23.30;48.70;;;;;;5017625;28;20038;-69
2022/03/25 11:56:03;;;;;;;6.15;4.10;;;23.10;49.20;;;;;;4996855;28;20043;-71
2022/03/25 11:58:30;;;;;;;6.45;4.47;;;23.10;49.60;;;;;;4985958;28;20041;-70
2022/03/25 12:01:20;;;;;;;6.07;4.93;;;23.00;49.60;;;;;;4999267;28;20035;-70
2022/03/25 12:03:50;;;;;;;8.13;5.10;;;22.90;50.00;;;;;;4995090;28;20049;-72
2022/03/25 12:06:18;;;;;;;6.15;4.38;;;22.80;50.20;;;;;;4996544;28;20142;-69
2022/03/25 12:09:08;;;;;;;4.95;3.75;;;22.80;50.60;;;;;;4979450;29;20070;-69
2022/03/25 12:12:00;;;;;;;6.90;4.95;;;22.90;50.90;;;;;;5000811;28;20042;-71
2022/03/25 12:14:32;;;;;;;6.15;3.92;;;22.90;50.80;;;;;;4995508;28;20066;-72
2022/03/25 12:17:06;;;;;;;4.80;3.58;;;22.80;50.50;;;;;;4997225;28;20046;-72
2022/03/25 12:19:41;;;;;;;5.38;4.25;;;22.80;50.50;;;;;;4997167;28;20046;-71
2022/03/25 12:22:21;;;;;;;5.88;4.28;;;22.80;50.50;;;;;;4998572;28;20042;-71
2022/03/25 12:24:55;;;;;;;5.88;4.32;;;22.80;51.00;;;;;;5012173;28;20038;-71
2022/03/25 12:27:21;;;;;;;5.38;4.40;;;22.80;53.60;;;;;;5011287;28;20034;-70
2022/03/25 12:29:51;;;;;;;6.05;4.80;;;22.70;55.10;;;;;;5000978;28;20039;-71
2022/03/25 12:32:23;;;;;;;5.60;4.07;;;22.70;55.00;;;;;;4995377;28;20046;-69
2022/03/25 12:34:49;;;;;;;4.22;3.83;;;22.70;53.70;;;;;;4999464;28;20050;-68
2022/03/25 12:37:22;;;;;;;5.30;4.10;;;22.60;51.20;;;;;;4995825;28;20114;-71
2022/03/25 12:39:49;;;;;;;4.82;3.58;;;22.70;52.10;;;;;;5008683;28;20046;-70
2022/03/25 12:42:15;;;;;;;5.03;3.70;;;22.60;50.30;;;;;;5012457;28;20063;-70
2022/03/25 12:44:41;;;;;;;5.38;3.60;;;22.40;52.00;;;;;;4998322;28;20098;-70
2022/03/25 12:47:09;;;;;;;5.25;3.58;;;22.40;51.60;;;;;;4998296;28;20050;-70
2022/03/25 12:49:35;;;;;;;4.32;3.65;;;22.40;51.60;;;;;;4998371;28;20058;-70
2022/03/25 12:52:04;;;;;;;4.82;3.90;;;22.40;51.20;;;;;;4998019;28;20054;-70
2022/03/25 12:54:36;;;;;;;5.50;3.88;;;22.50;50.50;;;;;;4996362;28;20074;-70